sensor_id;sensor_type;location;lat;lon;timestamp;P1;durP1;ratioP1;P2;durP2;ratioP2
21697;SDS011;11010;49.548;11.926;2024-01-30T00:01:26;11.53;;;3.50;;
21697;SDS011;11010;49.548;11.926;2024-01-30T00:03:53;10.30;;;3.60;;
21697;SDS011;11010;49.548;11.926;2024-01-30T00:06:20;10.33;;;3.70;;
21697;SDS011;11010;49.548;11.926;2024-01-30T00:08:49;10.30;;;3.37;;
21697;SDS011;11010;49.548;11.926;2024-01-30T00:11:16;13.13;;;4.00;;
21697;SDS011;11010;49.548;11.926;2024-01-30T00:13:43;10.40;;;3.70;;
21697;SDS011;11010;49.548;11.926;2024-01-30T00:16:23;12.43;;;3.80;;
21697;SDS011;11010;49.548;11.926;2024-01-30T00:18:51;9.60;;;3.30;;
21697;SDS011;11010;49.548;11.926;2024-01-30T00:21:19;10.33;;;3.77;;
21697;SDS011;11010;49.548;11.926;2024-01-30T00:23:47;10.80;;;3.97;;
21697;SDS011;11010;49.548;11.926;2024-01-30T00:26:14;12.87;;;4.03;;
21697;SDS011;11010;49.548;11.926;2024-01-30T00:28:42;9.33;;;3.33;;
21697;SDS011;11010;49.548;11.926;2024-01-30T00:31:09;10.73;;;3.60;;
21697;SDS011;11010;49.548;11.926;2024-01-30T00:33:40;10.03;;;3.70;;
21697;SDS011;11010;49.548;11.926;2024-01-30T00:36:08;10.53;;;3.23;;
21697;SDS011;11010;49.548;11.926;2024-01-30T00:38:36;11.00;;;3.50;;
21697;SDS011;11010;49.548;11.926;2024-01-30T00:41:03;10.60;;;3.90;;
21697;SDS011;11010;49.548;11.926;2024-01-30T00:43:31;10.10;;;3.33;;
21697;SDS011;11010;49.548;11.926;2024-01-30T00:45:58;11.03;;;3.60;;
21697;SDS011;11010;49.548;11.926;2024-01-30T00:48:26;11.97;;;4.07;;
21697;SDS011;11010;49.548;11.926;2024-01-30T00:50:53;12.50;;;3.87;;
21697;SDS011;11010;49.548;11.926;2024-01-30T00:53:20;9.60;;;3.53;;
21697;SDS011;11010;49.548;11.926;2024-01-30T00:55:48;11.73;;;3.60;;
21697;SDS011;11010;49.548;11.926;2024-01-30T00:58:15;10.13;;;3.63;;
21697;SDS011;11010;49.548;11.926;2024-01-30T01:00:42;11.43;;;3.63;;
21697;SDS011;11010;49.548;11.926;2024-01-30T01:03:10;10.50;;;3.73;;
21697;SDS011;11010;49.548;11.926;2024-01-30T01:05:37;11.73;;;3.63;;
21697;SDS011;11010;49.548;11.926;2024-01-30T01:08:04;9.97;;;3.93;;
21697;SDS011;11010;49.548;11.926;2024-01-30T01:10:31;11.73;;;3.93;;
21697;SDS011;11010;49.548;11.926;2024-01-30T01:12:59;9.50;;;3.67;;
21697;SDS011;11010;49.548;11.926;2024-01-30T01:15:26;11.10;;;3.93;;
21697;SDS011;11010;49.548;11.926;2024-01-30T01:17:56;11.00;;;4.07;;
21697;SDS011;11010;49.548;11.926;2024-01-30T01:20:23;11.90;;;4.17;;
21697;SDS011;11010;49.548;11.926;2024-01-30T01:22:50;12.23;;;4.20;;
21697;SDS011;11010;49.548;11.926;2024-01-30T01:25:19;12.30;;;3.90;;
21697;SDS011;11010;49.548;11.926;2024-01-30T01:27:46;12.50;;;4.37;;
21697;SDS011;11010;49.548;11.926;2024-01-30T01:30:18;12.87;;;4.47;;
21697;SDS011;11010;49.548;11.926;2024-01-30T01:32:48;10.67;;;3.90;;
21697;SDS011;11010;49.548;11.926;2024-01-30T01:35:22;13.10;;;4.30;;
21697;SDS011;11010;49.548;11.926;2024-01-30T01:37:53;12.17;;;3.70;;
21697;SDS011;11010;49.548;11.926;2024-01-30T01:40:25;13.07;;;4.03;;
21697;SDS011;11010;49.548;11.926;2024-01-30T01:42:54;11.47;;;3.97;;
21697;SDS011;11010;49.548;11.926;2024-01-30T01:45:22;11.97;;;4.27;;
21697;SDS011;11010;49.548;11.926;2024-01-30T01:47:50;12.53;;;4.63;;
21697;SDS011;11010;49.548;11.926;2024-01-30T01:50:18;11.13;;;4.17;;
21697;SDS011;11010;49.548;11.926;2024-01-30T01:52:50;11.97;;;4.40;;
21697;SDS011;11010;49.548;11.926;2024-01-30T01:55:18;11.27;;;3.67;;
21697;SDS011;11010;49.548;11.926;2024-01-30T01:57:52;11.97;;;3.73;;
21697;SDS011;11010;49.548;11.926;2024-01-30T02:00:20;10.90;;;4.10;;
21697;SDS011;11010;49.548;11.926;2024-01-30T02:02:47;13.57;;;4.80;;
21697;SDS011;11010;49.548;11.926;2024-01-30T02:05:17;12.37;;;4.10;;
21697;SDS011;11010;49.548;11.926;2024-01-30T02:07:45;10.57;;;4.13;;
21697;SDS011;11010;49.548;11.926;2024-01-30T02:10:12;12.10;;;3.90;;
21697;SDS011;11010;49.548;11.926;2024-01-30T02:12:40;11.43;;;4.23;;
21697;SDS011;11010;49.548;11.926;2024-01-30T02:15:07;10.10;;;3.73;;
21697;SDS011;11010;49.548;11.926;2024-01-30T02:17:35;12.57;;;4.10;;
21697;SDS011;11010;49.548;11.926;2024-01-30T02:20:02;10.83;;;3.90;;
21697;SDS011;11010;49.548;11.926;2024-01-30T02:22:30;13.20;;;3.67;;
21697;SDS011;11010;49.548;11.926;2024-01-30T02:25:01;13.07;;;3.77;;
21697;SDS011;11010;49.548;11.926;2024-01-30T02:27:29;9.93;;;3.90;;
21697;SDS011;11010;49.548;11.926;2024-01-30T02:29:56;11.33;;;3.87;;
21697;SDS011;11010;49.548;11.926;2024-01-30T02:32:23;11.67;;;4.10;;
21697;SDS011;11010;49.548;11.926;2024-01-30T02:34:51;11.90;;;3.80;;
21697;SDS011;11010;49.548;11.926;2024-01-30T02:37:18;12.80;;;4.10;;
21697;SDS011;11010;49.548;11.926;2024-01-30T02:39:45;13.23;;;4.27;;
21697;SDS011;11010;49.548;11.926;2024-01-30T02:42:12;10.43;;;3.70;;
21697;SDS011;11010;49.548;11.926;2024-01-30T02:44:39;14.43;;;3.87;;
21697;SDS011;11010;49.548;11.926;2024-01-30T02:47:07;12.23;;;4.30;;
21697;SDS011;11010;49.548;11.926;2024-01-30T02:49:34;13.83;;;3.87;;
21697;SDS011;11010;49.548;11.926;2024-01-30T02:52:01;11.20;;;4.23;;
21697;SDS011;11010;49.548;11.926;2024-01-30T02:54:29;11.53;;;4.10;;
21697;SDS011;11010;49.548;11.926;2024-01-30T02:56:57;11.53;;;3.70;;
21697;SDS011;11010;49.548;11.926;2024-01-30T02:59:24;11.20;;;4.27;;
21697;SDS011;11010;49.548;11.926;2024-01-30T03:01:51;13.53;;;4.27;;
21697;SDS011;11010;49.548;11.926;2024-01-30T03:04:19;10.37;;;3.67;;
21697;SDS011;11010;49.548;11.926;2024-01-30T03:06:46;10.90;;;3.90;;
21697;SDS011;11010;49.548;11.926;2024-01-30T03:09:16;10.67;;;3.87;;
21697;SDS011;11010;49.548;11.926;2024-01-30T03:11:44;10.83;;;3.93;;
21697;SDS011;11010;49.548;11.926;2024-01-30T03:14:11;10.70;;;3.67;;
21697;SDS011;11010;49.548;11.926;2024-01-30T03:16:38;11.30;;;3.87;;
21697;SDS011;11010;49.548;11.926;2024-01-30T03:19:06;12.27;;;3.83;;
21697;SDS011;11010;49.548;11.926;2024-01-30T03:21:36;11.30;;;4.00;;
21697;SDS011;11010;49.548;11.926;2024-01-30T03:24:04;13.53;;;4.37;;
21697;SDS011;11010;49.548;11.926;2024-01-30T03:26:32;10.27;;;3.77;;
21697;SDS011;11010;49.548;11.926;2024-01-30T03:28:59;11.07;;;3.80;;
21697;SDS011;11010;49.548;11.926;2024-01-30T03:31:26;11.80;;;4.00;;
21697;SDS011;11010;49.548;11.926;2024-01-30T03:33:53;11.17;;;4.17;;
21697;SDS011;11010;49.548;11.926;2024-01-30T03:36:21;13.13;;;4.13;;
21697;SDS011;11010;49.548;11.926;2024-01-30T03:38:48;13.17;;;4.23;;
21697;SDS011;11010;49.548;11.926;2024-01-30T03:41:15;9.63;;;3.47;;
21697;SDS011;11010;49.548;11.926;2024-01-30T03:43:42;12.27;;;3.83;;
21697;SDS011;11010;49.548;11.926;2024-01-30T03:46:11;12.33;;;3.90;;
21697;SDS011;11010;49.548;11.926;2024-01-30T03:48:39;13.83;;;3.83;;
21697;SDS011;11010;49.548;11.926;2024-01-30T03:51:06;11.53;;;4.17;;
21697;SDS011;11010;49.548;11.926;2024-01-30T03:53:34;11.67;;;3.90;;
21697;SDS011;11010;49.548;11.926;2024-01-30T03:56:01;13.77;;;3.93;;
21697;SDS011;11010;49.548;11.926;2024-01-30T03:58:29;11.50;;;3.83;;
21697;SDS011;11010;49.548;11.926;2024-01-30T04:00:56;12.47;;;4.23;;
21697;SDS011;11010;49.548;11.926;2024-01-30T04:03:24;11.03;;;3.73;;
21697;SDS011;11010;49.548;11.926;2024-01-30T04:05:51;12.23;;;4.00;;
21697;SDS011;11010;49.548;11.926;2024-01-30T04:08:19;16.50;;;4.70;;
21697;SDS011;11010;49.548;11.926;2024-01-30T04:10:47;11.57;;;4.17;;
21697;SDS011;11010;49.548;11.926;2024-01-30T04:13:14;12.87;;;4.67;;
21697;SDS011;11010;49.548;11.926;2024-01-30T04:15:42;12.87;;;4.23;;
21697;SDS011;11010;49.548;11.926;2024-01-30T04:18:09;11.03;;;3.80;;
21697;SDS011;11010;49.548;11.926;2024-01-30T04:20:36;12.17;;;3.87;;
21697;SDS011;11010;49.548;11.926;2024-01-30T04:23:03;11.93;;;4.00;;
21697;SDS011;11010;49.548;11.926;2024-01-30T04:25:31;11.60;;;3.97;;
21697;SDS011;11010;49.548;11.926;2024-01-30T04:27:58;13.10;;;3.93;;
21697;SDS011;11010;49.548;11.926;2024-01-30T04:30:25;10.80;;;4.07;;
21697;SDS011;11010;49.548;11.926;2024-01-30T04:32:52;11.50;;;4.00;;
21697;SDS011;11010;49.548;11.926;2024-01-30T04:35:19;12.17;;;4.50;;
21697;SDS011;11010;49.548;11.926;2024-01-30T04:37:51;10.93;;;3.97;;
21697;SDS011;11010;49.548;11.926;2024-01-30T04:40:22;11.33;;;4.23;;
21697;SDS011;11010;49.548;11.926;2024-01-30T04:42:50;11.87;;;4.20;;
21697;SDS011;11010;49.548;11.926;2024-01-30T04:45:17;11.73;;;3.90;;
21697;SDS011;11010;49.548;11.926;2024-01-30T04:47:44;11.13;;;4.07;;
21697;SDS011;11010;49.548;11.926;2024-01-30T04:50:13;11.70;;;4.23;;
21697;SDS011;11010;49.548;11.926;2024-01-30T04:52:40;13.70;;;4.43;;
21697;SDS011;11010;49.548;11.926;2024-01-30T04:55:07;12.70;;;4.13;;
21697;SDS011;11010;49.548;11.926;2024-01-30T04:57:35;11.23;;;4.20;;
21697;SDS011;11010;49.548;11.926;2024-01-30T05:00:03;12.57;;;4.10;;
21697;SDS011;11010;49.548;11.926;2024-01-30T05:02:32;11.07;;;4.23;;
21697;SDS011;11010;49.548;11.926;2024-01-30T05:04:59;10.83;;;4.23;;
21697;SDS011;11010;49.548;11.926;2024-01-30T05:07:26;12.80;;;4.30;;
21697;SDS011;11010;49.548;11.926;2024-01-30T05:09:53;15.17;;;4.93;;
21697;SDS011;11010;49.548;11.926;2024-01-30T05:12:25;11.47;;;4.47;;
21697;SDS011;11010;49.548;11.926;2024-01-30T05:14:52;12.37;;;4.03;;
21697;SDS011;11010;49.548;11.926;2024-01-30T05:17:20;9.70;;;3.77;;
21697;SDS011;11010;49.548;11.926;2024-01-30T05:19:47;14.27;;;4.90;;
21697;SDS011;11010;49.548;11.926;2024-01-30T05:22:14;10.80;;;3.90;;
21697;SDS011;11010;49.548;11.926;2024-01-30T05:24:44;11.27;;;4.20;;
21697;SDS011;11010;49.548;11.926;2024-01-30T05:27:12;12.47;;;4.40;;
21697;SDS011;11010;49.548;11.926;2024-01-30T05:29:40;12.93;;;4.40;;
21697;SDS011;11010;49.548;11.926;2024-01-30T05:32:07;12.53;;;4.67;;
21697;SDS011;11010;49.548;11.926;2024-01-30T05:34:35;12.47;;;4.20;;
21697;SDS011;11010;49.548;11.926;2024-01-30T05:37:03;11.27;;;4.13;;
21697;SDS011;11010;49.548;11.926;2024-01-30T05:39:30;13.10;;;4.27;;
21697;SDS011;11010;49.548;11.926;2024-01-30T05:42:00;13.37;;;4.90;;
21697;SDS011;11010;49.548;11.926;2024-01-30T05:44:28;12.23;;;4.60;;
21697;SDS011;11010;49.548;11.926;2024-01-30T05:46:55;13.83;;;4.47;;
21697;SDS011;11010;49.548;11.926;2024-01-30T05:49:22;10.97;;;4.47;;
21697;SDS011;11010;49.548;11.926;2024-01-30T05:51:50;11.93;;;4.67;;
21697;SDS011;11010;49.548;11.926;2024-01-30T05:54:17;12.17;;;4.40;;
21697;SDS011;11010;49.548;11.926;2024-01-30T05:56:44;14.80;;;4.60;;
21697;SDS011;11010;49.548;11.926;2024-01-30T05:59:11;12.77;;;4.50;;
21697;SDS011;11010;49.548;11.926;2024-01-30T06:01:44;12.00;;;4.50;;
21697;SDS011;11010;49.548;11.926;2024-01-30T06:04:13;14.43;;;4.83;;
21697;SDS011;11010;49.548;11.926;2024-01-30T06:06:41;14.40;;;4.73;;
21697;SDS011;11010;49.548;11.926;2024-01-30T06:09:08;14.47;;;5.63;;
21697;SDS011;11010;49.548;11.926;2024-01-30T06:11:35;14.37;;;5.13;;
21697;SDS011;11010;49.548;11.926;2024-01-30T06:14:03;14.00;;;5.23;;
21697;SDS011;11010;49.548;11.926;2024-01-30T06:16:30;15.63;;;4.70;;
21697;SDS011;11010;49.548;11.926;2024-01-30T06:18:57;14.30;;;5.00;;
21697;SDS011;11010;49.548;11.926;2024-01-30T06:21:25;13.63;;;5.10;;
21697;SDS011;11010;49.548;11.926;2024-01-30T06:23:53;14.83;;;5.33;;
21697;SDS011;11010;49.548;11.926;2024-01-30T06:26:22;14.43;;;4.90;;
21697;SDS011;11010;49.548;11.926;2024-01-30T06:28:50;12.97;;;4.37;;
21697;SDS011;11010;49.548;11.926;2024-01-30T06:31:17;15.20;;;5.40;;
21697;SDS011;11010;49.548;11.926;2024-01-30T06:33:46;13.23;;;4.67;;
21697;SDS011;11010;49.548;11.926;2024-01-30T06:36:16;13.27;;;4.87;;
21697;SDS011;11010;49.548;11.926;2024-01-30T06:38:43;14.27;;;4.63;;
21697;SDS011;11010;49.548;11.926;2024-01-30T06:41:11;12.43;;;4.33;;
21697;SDS011;11010;49.548;11.926;2024-01-30T06:43:38;11.27;;;4.50;;
21697;SDS011;11010;49.548;11.926;2024-01-30T06:46:05;13.27;;;4.73;;
21697;SDS011;11010;49.548;11.926;2024-01-30T06:48:32;13.90;;;4.90;;
21697;SDS011;11010;49.548;11.926;2024-01-30T06:51:00;11.50;;;4.53;;
21697;SDS011;11010;49.548;11.926;2024-01-30T06:53:27;14.77;;;4.97;;
21697;SDS011;11010;49.548;11.926;2024-01-30T06:55:54;14.93;;;5.00;;
21697;SDS011;11010;49.548;11.926;2024-01-30T06:58:22;13.40;;;4.63;;
21697;SDS011;11010;49.548;11.926;2024-01-30T07:00:49;14.17;;;4.57;;
21697;SDS011;11010;49.548;11.926;2024-01-30T07:03:16;14.23;;;4.67;;
21697;SDS011;11010;49.548;11.926;2024-01-30T07:05:44;12.43;;;4.40;;
21697;SDS011;11010;49.548;11.926;2024-01-30T07:08:11;14.83;;;4.70;;
21697;SDS011;11010;49.548;11.926;2024-01-30T07:10:38;12.53;;;4.30;;
21697;SDS011;11010;49.548;11.926;2024-01-30T07:13:05;13.13;;;4.40;;
21697;SDS011;11010;49.548;11.926;2024-01-30T07:15:33;12.33;;;4.70;;
21697;SDS011;11010;49.548;11.926;2024-01-30T07:18:00;14.07;;;5.33;;
21697;SDS011;11010;49.548;11.926;2024-01-30T07:20:28;14.97;;;5.30;;
21697;SDS011;11010;49.548;11.926;2024-01-30T07:23:00;14.97;;;5.13;;
21697;SDS011;11010;49.548;11.926;2024-01-30T07:25:27;14.83;;;5.03;;
21697;SDS011;11010;49.548;11.926;2024-01-30T07:27:56;13.43;;;4.67;;
21697;SDS011;11010;49.548;11.926;2024-01-30T07:30:24;13.10;;;4.63;;
21697;SDS011;11010;49.548;11.926;2024-01-30T07:32:51;12.83;;;4.63;;
21697;SDS011;11010;49.548;11.926;2024-01-30T07:35:18;14.00;;;5.20;;
21697;SDS011;11010;49.548;11.926;2024-01-30T07:37:46;14.43;;;4.97;;
21697;SDS011;11010;49.548;11.926;2024-01-30T07:40:13;12.93;;;4.77;;
21697;SDS011;11010;49.548;11.926;2024-01-30T07:42:40;15.77;;;5.50;;
21697;SDS011;11010;49.548;11.926;2024-01-30T07:45:08;14.23;;;5.20;;
21697;SDS011;11010;49.548;11.926;2024-01-30T07:47:36;17.63;;;5.30;;
21697;SDS011;11010;49.548;11.926;2024-01-30T07:50:03;15.17;;;5.10;;
21697;SDS011;11010;49.548;11.926;2024-01-30T07:52:42;16.13;;;5.03;;
21697;SDS011;11010;49.548;11.926;2024-01-30T07:55:58;15.03;;;5.10;;
21697;SDS011;11010;49.548;11.926;2024-01-30T07:58:27;13.93;;;5.03;;
21697;SDS011;11010;49.548;11.926;2024-01-30T08:00:54;14.60;;;5.37;;
21697;SDS011;11010;49.548;11.926;2024-01-30T08:03:25;14.40;;;4.93;;
21697;SDS011;11010;49.548;11.926;2024-01-30T08:05:52;14.70;;;5.13;;
21697;SDS011;11010;49.548;11.926;2024-01-30T08:08:20;13.40;;;4.80;;
21697;SDS011;11010;49.548;11.926;2024-01-30T08:10:47;13.53;;;5.00;;
21697;SDS011;11010;49.548;11.926;2024-01-30T08:13:15;14.10;;;5.23;;
21697;SDS011;11010;49.548;11.926;2024-01-30T08:15:43;13.60;;;5.13;;
21697;SDS011;11010;49.548;11.926;2024-01-30T08:18:13;14.37;;;4.90;;
21697;SDS011;11010;49.548;11.926;2024-01-30T08:20:40;13.03;;;4.83;;
21697;SDS011;11010;49.548;11.926;2024-01-30T08:23:07;14.33;;;5.40;;
21697;SDS011;11010;49.548;11.926;2024-01-30T08:25:35;13.47;;;5.10;;
21697;SDS011;11010;49.548;11.926;2024-01-30T08:28:03;16.33;;;6.00;;
21697;SDS011;11010;49.548;11.926;2024-01-30T08:30:31;15.03;;;5.70;;
21697;SDS011;11010;49.548;11.926;2024-01-30T08:32:58;15.47;;;5.20;;
21697;SDS011;11010;49.548;11.926;2024-01-30T08:35:25;16.00;;;5.70;;
21697;SDS011;11010;49.548;11.926;2024-01-30T08:37:53;16.53;;;6.37;;
21697;SDS011;11010;49.548;11.926;2024-01-30T08:40:21;16.63;;;6.10;;
21697;SDS011;11010;49.548;11.926;2024-01-30T08:42:48;17.57;;;6.60;;
21697;SDS011;11010;49.548;11.926;2024-01-30T08:45:15;17.40;;;6.83;;
21697;SDS011;11010;49.548;11.926;2024-01-30T08:47:43;17.10;;;6.83;;
21697;SDS011;11010;49.548;11.926;2024-01-30T08:50:10;20.63;;;7.60;;
21697;SDS011;11010;49.548;11.926;2024-01-30T08:52:37;21.63;;;7.97;;
21697;SDS011;11010;49.548;11.926;2024-01-30T08:55:05;20.37;;;8.43;;
21697;SDS011;11010;49.548;11.926;2024-01-30T08:57:32;20.73;;;7.83;;
21697;SDS011;11010;49.548;11.926;2024-01-30T09:00:00;20.67;;;8.77;;
21697;SDS011;11010;49.548;11.926;2024-01-30T09:02:31;23.43;;;9.47;;
21697;SDS011;11010;49.548;11.926;2024-01-30T09:04:59;21.70;;;9.30;;
21697;SDS011;11010;49.548;11.926;2024-01-30T09:07:26;23.30;;;9.70;;
21697;SDS011;11010;49.548;11.926;2024-01-30T09:09:54;22.30;;;9.83;;
21697;SDS011;11010;49.548;11.926;2024-01-30T09:12:21;26.23;;;9.90;;
21697;SDS011;11010;49.548;11.926;2024-01-30T09:14:48;22.50;;;8.97;;
21697;SDS011;11010;49.548;11.926;2024-01-30T09:17:15;20.13;;;8.60;;
21697;SDS011;11010;49.548;11.926;2024-01-30T09:19:43;22.53;;;9.07;;
21697;SDS011;11010;49.548;11.926;2024-01-30T09:22:11;21.03;;;8.70;;
21697;SDS011;11010;49.548;11.926;2024-01-30T09:24:38;19.07;;;8.50;;
21697;SDS011;11010;49.548;11.926;2024-01-30T09:27:06;17.93;;;8.10;;
21697;SDS011;11010;49.548;11.926;2024-01-30T09:29:34;21.13;;;8.80;;
21697;SDS011;11010;49.548;11.926;2024-01-30T09:32:03;21.53;;;8.27;;
21697;SDS011;11010;49.548;11.926;2024-01-30T09:34:32;20.97;;;8.47;;
21697;SDS011;11010;49.548;11.926;2024-01-30T09:37:00;24.10;;;9.83;;
21697;SDS011;11010;49.548;11.926;2024-01-30T09:39:29;20.50;;;8.80;;
21697;SDS011;11010;49.548;11.926;2024-01-30T09:42:17;21.60;;;8.87;;
21697;SDS011;11010;49.548;11.926;2024-01-30T09:44:54;20.50;;;8.70;;
21697;SDS011;11010;49.548;11.926;2024-01-30T09:47:23;18.23;;;8.47;;
21697;SDS011;11010;49.548;11.926;2024-01-30T09:49:51;23.80;;;9.90;;
21697;SDS011;11010;49.548;11.926;2024-01-30T09:52:19;22.13;;;9.80;;
21697;SDS011;11010;49.548;11.926;2024-01-30T09:54:46;22.20;;;10.00;;
21697;SDS011;11010;49.548;11.926;2024-01-30T09:57:17;25.23;;;9.70;;
21697;SDS011;11010;49.548;11.926;2024-01-30T09:59:44;23.63;;;10.90;;
21697;SDS011;11010;49.548;11.926;2024-01-30T10:02:11;27.10;;;10.63;;
21697;SDS011;11010;49.548;11.926;2024-01-30T10:04:39;23.90;;;10.57;;
21697;SDS011;11010;49.548;11.926;2024-01-30T10:07:08;24.33;;;10.43;;
21697;SDS011;11010;49.548;11.926;2024-01-30T10:09:37;21.60;;;9.80;;
21697;SDS011;11010;49.548;11.926;2024-01-30T10:12:04;24.30;;;10.57;;
21697;SDS011;11010;49.548;11.926;2024-01-30T10:14:33;24.80;;;10.67;;
21697;SDS011;11010;49.548;11.926;2024-01-30T10:17:01;23.50;;;10.00;;
21697;SDS011;11010;49.548;11.926;2024-01-30T10:19:32;24.57;;;10.70;;
21697;SDS011;11010;49.548;11.926;2024-01-30T10:22:00;23.93;;;10.30;;
21697;SDS011;11010;49.548;11.926;2024-01-30T10:24:27;26.10;;;10.70;;
21697;SDS011;11010;49.548;11.926;2024-01-30T10:26:56;22.30;;;9.97;;
21697;SDS011;11010;49.548;11.926;2024-01-30T10:29:24;23.77;;;9.93;;
21697;SDS011;11010;49.548;11.926;2024-01-30T10:31:58;26.07;;;10.03;;
21697;SDS011;11010;49.548;11.926;2024-01-30T10:34:29;22.13;;;10.60;;
21697;SDS011;11010;49.548;11.926;2024-01-30T10:37:05;21.83;;;10.50;;
21697;SDS011;11010;49.548;11.926;2024-01-30T10:39:39;23.90;;;10.57;;
21697;SDS011;11010;49.548;11.926;2024-01-30T10:42:11;21.97;;;10.40;;
21697;SDS011;11010;49.548;11.926;2024-01-30T10:44:47;23.47;;;10.53;;
21697;SDS011;11010;49.548;11.926;2024-01-30T10:47:36;23.13;;;9.87;;
21697;SDS011;11010;49.548;11.926;2024-01-30T10:50:04;24.80;;;10.17;;
21697;SDS011;11010;49.548;11.926;2024-01-30T10:52:35;24.70;;;10.33;;
21697;SDS011;11010;49.548;11.926;2024-01-30T10:55:03;23.67;;;10.90;;
21697;SDS011;11010;49.548;11.926;2024-01-30T10:57:35;20.47;;;9.53;;
21697;SDS011;11010;49.548;11.926;2024-01-30T11:00:09;22.93;;;10.27;;
21697;SDS011;11010;49.548;11.926;2024-01-30T11:02:40;22.00;;;10.10;;
21697;SDS011;11010;49.548;11.926;2024-01-30T11:05:08;24.43;;;10.80;;
21697;SDS011;11010;49.548;11.926;2024-01-30T11:07:38;20.27;;;9.77;;
21697;SDS011;11010;49.548;11.926;2024-01-30T11:10:08;23.97;;;11.23;;
21697;SDS011;11010;49.548;11.926;2024-01-30T11:12:39;25.67;;;11.07;;
21697;SDS011;11010;49.548;11.926;2024-01-30T11:15:15;23.47;;;10.10;;
21697;SDS011;11010;49.548;11.926;2024-01-30T11:17:50;24.77;;;10.30;;
21697;SDS011;11010;49.548;11.926;2024-01-30T11:22:53;21.70;;;9.77;;
21697;SDS011;11010;49.548;11.926;2024-01-30T11:25:21;23.63;;;10.20;;
21697;SDS011;11010;49.548;11.926;2024-01-30T11:27:50;23.83;;;9.87;;
21697;SDS011;11010;49.548;11.926;2024-01-30T11:30:29;21.67;;;9.33;;
21697;SDS011;11010;49.548;11.926;2024-01-30T11:32:58;23.73;;;9.77;;
21697;SDS011;11010;49.548;11.926;2024-01-30T11:35:29;23.17;;;10.20;;
21697;SDS011;11010;49.548;11.926;2024-01-30T11:38:00;20.13;;;9.60;;
21697;SDS011;11010;49.548;11.926;2024-01-30T11:40:29;20.50;;;9.33;;
21697;SDS011;11010;49.548;11.926;2024-01-30T11:42:58;22.37;;;10.17;;
21697;SDS011;11010;49.548;11.926;2024-01-30T11:45:27;24.13;;;9.73;;
21697;SDS011;11010;49.548;11.926;2024-01-30T11:47:55;20.93;;;9.87;;
21697;SDS011;11010;49.548;11.926;2024-01-30T11:50:22;21.70;;;10.17;;
21697;SDS011;11010;49.548;11.926;2024-01-30T11:52:51;21.07;;;9.70;;
21697;SDS011;11010;49.548;11.926;2024-01-30T11:55:18;23.43;;;9.33;;
21697;SDS011;11010;49.548;11.926;2024-01-30T11:57:46;24.83;;;10.17;;
21697;SDS011;11010;49.548;11.926;2024-01-30T12:00:16;21.13;;;9.13;;
21697;SDS011;11010;49.548;11.926;2024-01-30T12:02:49;21.43;;;10.00;;
21697;SDS011;11010;49.548;11.926;2024-01-30T12:05:23;19.73;;;9.20;;
21697;SDS011;11010;49.548;11.926;2024-01-30T12:07:53;21.97;;;9.67;;
21697;SDS011;11010;49.548;11.926;2024-01-30T12:10:21;20.17;;;9.73;;
21697;SDS011;11010;49.548;11.926;2024-01-30T12:12:49;22.00;;;9.67;;
21697;SDS011;11010;49.548;11.926;2024-01-30T12:15:18;20.50;;;9.50;;
21697;SDS011;11010;49.548;11.926;2024-01-30T12:17:48;20.63;;;9.47;;
21697;SDS011;11010;49.548;11.926;2024-01-30T12:20:19;22.43;;;10.07;;
21697;SDS011;11010;49.548;11.926;2024-01-30T12:22:49;18.40;;;9.23;;
21697;SDS011;11010;49.548;11.926;2024-01-30T12:25:18;22.00;;;9.07;;
21697;SDS011;11010;49.548;11.926;2024-01-30T12:27:48;20.77;;;9.17;;
21697;SDS011;11010;49.548;11.926;2024-01-30T12:30:20;21.23;;;9.40;;
21697;SDS011;11010;49.548;11.926;2024-01-30T12:32:49;19.97;;;9.23;;
21697;SDS011;11010;49.548;11.926;2024-01-30T12:35:20;20.07;;;8.93;;
21697;SDS011;11010;49.548;11.926;2024-01-30T12:37:53;17.63;;;8.43;;
21697;SDS011;11010;49.548;11.926;2024-01-30T12:40:22;19.00;;;9.03;;
21697;SDS011;11010;49.548;11.926;2024-01-30T12:42:51;20.63;;;9.57;;
21697;SDS011;11010;49.548;11.926;2024-01-30T12:45:19;21.27;;;9.40;;
21697;SDS011;11010;49.548;11.926;2024-01-30T12:47:49;22.47;;;9.80;;
21697;SDS011;11010;49.548;11.926;2024-01-30T12:50:17;18.33;;;8.73;;
21697;SDS011;11010;49.548;11.926;2024-01-30T12:52:45;19.33;;;9.00;;
21697;SDS011;11010;49.548;11.926;2024-01-30T12:55:15;20.70;;;9.03;;
21697;SDS011;11010;49.548;11.926;2024-01-30T12:57:43;18.47;;;8.60;;
21697;SDS011;11010;49.548;11.926;2024-01-30T13:00:10;20.80;;;9.90;;
21697;SDS011;11010;49.548;11.926;2024-01-30T13:02:38;21.13;;;9.87;;
21697;SDS011;11010;49.548;11.926;2024-01-30T13:05:05;20.63;;;9.67;;
21697;SDS011;11010;49.548;11.926;2024-01-30T13:07:34;18.93;;;9.27;;
21697;SDS011;11010;49.548;11.926;2024-01-30T13:10:02;18.80;;;9.33;;
21697;SDS011;11010;49.548;11.926;2024-01-30T13:12:31;21.03;;;9.20;;
21697;SDS011;11010;49.548;11.926;2024-01-30T13:15:02;20.97;;;9.50;;
21697;SDS011;11010;49.548;11.926;2024-01-30T13:17:31;23.50;;;11.13;;
21697;SDS011;11010;49.548;11.926;2024-01-30T13:19:59;25.17;;;11.53;;
21697;SDS011;11010;49.548;11.926;2024-01-30T13:22:36;19.63;;;9.27;;
21697;SDS011;11010;49.548;11.926;2024-01-30T13:25:06;21.00;;;9.93;;
21697;SDS011;11010;49.548;11.926;2024-01-30T13:27:35;20.20;;;9.40;;
21697;SDS011;11010;49.548;11.926;2024-01-30T13:30:04;20.73;;;9.87;;
21697;SDS011;11010;49.548;11.926;2024-01-30T13:32:33;20.37;;;9.47;;
21697;SDS011;11010;49.548;11.926;2024-01-30T13:35:00;19.27;;;8.93;;
21697;SDS011;11010;49.548;11.926;2024-01-30T13:37:27;20.27;;;9.33;;
21697;SDS011;11010;49.548;11.926;2024-01-30T13:39:55;21.90;;;9.77;;
21697;SDS011;11010;49.548;11.926;2024-01-30T13:42:23;19.73;;;9.07;;
21697;SDS011;11010;49.548;11.926;2024-01-30T13:44:50;18.90;;;9.20;;
21697;SDS011;11010;49.548;11.926;2024-01-30T13:47:17;18.23;;;8.97;;
21697;SDS011;11010;49.548;11.926;2024-01-30T13:49:48;19.23;;;8.80;;
21697;SDS011;11010;49.548;11.926;2024-01-30T13:52:15;18.87;;;8.97;;
21697;SDS011;11010;49.548;11.926;2024-01-30T13:54:42;20.40;;;9.03;;
21697;SDS011;11010;49.548;11.926;2024-01-30T13:57:10;22.27;;;9.73;;
21697;SDS011;11010;49.548;11.926;2024-01-30T13:59:38;19.10;;;9.47;;
21697;SDS011;11010;49.548;11.926;2024-01-30T14:02:05;21.07;;;10.13;;
21697;SDS011;11010;49.548;11.926;2024-01-30T14:04:35;17.87;;;9.10;;
21697;SDS011;11010;49.548;11.926;2024-01-30T14:07:04;22.47;;;10.13;;
21697;SDS011;11010;49.548;11.926;2024-01-30T14:09:33;25.60;;;9.87;;
21697;SDS011;11010;49.548;11.926;2024-01-30T14:12:00;21.80;;;10.50;;
21697;SDS011;11010;49.548;11.926;2024-01-30T14:14:28;25.17;;;10.57;;
21697;SDS011;11010;49.548;11.926;2024-01-30T14:16:55;23.23;;;10.17;;
21697;SDS011;11010;49.548;11.926;2024-01-30T14:19:23;21.80;;;9.83;;
21697;SDS011;11010;49.548;11.926;2024-01-30T14:21:50;24.93;;;10.90;;
21697;SDS011;11010;49.548;11.926;2024-01-30T14:24:17;22.47;;;10.73;;
21697;SDS011;11010;49.548;11.926;2024-01-30T14:26:45;22.83;;;10.17;;
21697;SDS011;11010;49.548;11.926;2024-01-30T14:29:13;24.87;;;10.23;;
21697;SDS011;11010;49.548;11.926;2024-01-30T14:31:40;23.13;;;11.03;;